sensor_id;sensor_type;location;lat;lon;timestamp;P1;durP1;ratioP1;P2;durP2;ratioP2
67352;SDS011;54238;52.278;21.056;2023-02-28T00:00:11;86.40;;;32.30;;
67352;SDS011;54238;52.278;21.056;2023-02-28T00:03:03;66.10;;;25.10;;
67352;SDS011;54238;52.278;21.056;2023-02-28T00:05:30;76.90;;;28.10;;
67352;SDS011;54238;52.278;21.056;2023-02-28T00:08:03;68.60;;;29.10;;
67352;SDS011;54238;52.278;21.056;2023-02-28T00:10:36;62.90;;;27.10;;
67352;SDS011;54238;52.278;21.056;2023-02-28T00:13:06;74.10;;;29.50;;
67352;SDS011;54238;52.278;21.056;2023-02-28T00:15:36;82.20;;;30.40;;
67352;SDS011;54238;52.278;21.056;2023-02-28T00:18:03;66.10;;;26.50;;
67352;SDS011;54238;52.278;21.056;2023-02-28T00:20:33;79.10;;;29.90;;
67352;SDS011;54238;52.278;21.056;2023-02-28T00:23:02;65.40;;;27.70;;
67352;SDS011;54238;52.278;21.056;2023-02-28T00:25:31;68.70;;;26.40;;
67352;SDS011;54238;52.278;21.056;2023-02-28T00:28:06;54.00;;;22.20;;
67352;SDS011;54238;52.278;21.056;2023-02-28T00:30:36;68.30;;;28.70;;
67352;SDS011;54238;52.278;21.056;2023-02-28T00:33:03;71.80;;;28.30;;
67352;SDS011;54238;52.278;21.056;2023-02-28T00:35:32;76.00;;;32.10;;
67352;SDS011;54238;52.278;21.056;2023-02-28T00:38:05;60.70;;;23.30;;
67352;SDS011;54238;52.278;21.056;2023-02-28T00:40:34;81.60;;;30.30;;
67352;SDS011;54238;52.278;21.056;2023-02-28T00:43:01;44.40;;;19.00;;
67352;SDS011;54238;52.278;21.056;2023-02-28T00:45:31;60.90;;;24.30;;
67352;SDS011;54238;52.278;21.056;2023-02-28T00:48:03;82.80;;;30.50;;
67352;SDS011;54238;52.278;21.056;2023-02-28T00:50:35;77.50;;;32.40;;
67352;SDS011;54238;52.278;21.056;2023-02-28T00:53:09;67.00;;;28.50;;
67352;SDS011;54238;52.278;21.056;2023-02-28T00:55:41;53.40;;;20.60;;
67352;SDS011;54238;52.278;21.056;2023-02-28T00:58:08;62.10;;;23.90;;
67352;SDS011;54238;52.278;21.056;2023-02-28T01:00:35;54.10;;;21.70;;
67352;SDS011;54238;52.278;21.056;2023-02-28T01:03:05;72.80;;;26.80;;
67352;SDS011;54238;52.278;21.056;2023-02-28T01:05:34;58.30;;;25.40;;
67352;SDS011;54238;52.278;21.056;2023-02-28T01:08:06;59.20;;;24.00;;
67352;SDS011;54238;52.278;21.056;2023-02-28T01:10:36;62.50;;;24.00;;
67352;SDS011;54238;52.278;21.056;2023-02-28T01:13:04;64.10;;;27.60;;
67352;SDS011;54238;52.278;21.056;2023-02-28T01:15:33;52.90;;;20.70;;
67352;SDS011;54238;52.278;21.056;2023-02-28T01:18:06;45.40;;;20.00;;
67352;SDS011;54238;52.278;21.056;2023-02-28T01:20:41;59.10;;;22.80;;
67352;SDS011;54238;52.278;21.056;2023-02-28T01:23:08;62.00;;;26.10;;
67352;SDS011;54238;52.278;21.056;2023-02-28T01:25:41;74.80;;;28.50;;
67352;SDS011;54238;52.278;21.056;2023-02-28T01:30:42;56.20;;;22.20;;
67352;SDS011;54238;52.278;21.056;2023-02-28T01:33:11;76.60;;;28.00;;
67352;SDS011;54238;52.278;21.056;2023-02-28T01:35:40;63.40;;;24.00;;
67352;SDS011;54238;52.278;21.056;2023-02-28T01:38:10;52.80;;;22.10;;
67352;SDS011;54238;52.278;21.056;2023-02-28T01:40:40;50.20;;;22.80;;
67352;SDS011;54238;52.278;21.056;2023-02-28T01:43:28;52.70;;;24.20;;
67352;SDS011;54238;52.278;21.056;2023-02-28T01:46:02;67.10;;;27.50;;
67352;SDS011;54238;52.278;21.056;2023-02-28T01:48:36;56.70;;;22.70;;
67352;SDS011;54238;52.278;21.056;2023-02-28T01:51:15;54.50;;;22.80;;
67352;SDS011;54238;52.278;21.056;2023-02-28T01:53:51;57.10;;;23.20;;
67352;SDS011;54238;52.278;21.056;2023-02-28T01:56:27;44.70;;;18.90;;
67352;SDS011;54238;52.278;21.056;2023-02-28T01:58:58;49.50;;;20.80;;
67352;SDS011;54238;52.278;21.056;2023-02-28T02:01:29;66.20;;;24.70;;
67352;SDS011;54238;52.278;21.056;2023-02-28T02:04:02;58.70;;;23.70;;
67352;SDS011;54238;52.278;21.056;2023-02-28T02:06:37;54.70;;;24.70;;
67352;SDS011;54238;52.278;21.056;2023-02-28T02:09:07;47.60;;;19.60;;
67352;SDS011;54238;52.278;21.056;2023-02-28T02:11:39;56.50;;;23.50;;
67352;SDS011;54238;52.278;21.056;2023-02-28T02:14:34;59.40;;;23.40;;
67352;SDS011;54238;52.278;21.056;2023-02-28T02:17:13;58.60;;;23.80;;
67352;SDS011;54238;52.278;21.056;2023-02-28T02:37:34;52.60;;;21.60;;
67352;SDS011;54238;52.278;21.056;2023-02-28T02:45:42;62.00;;;26.00;;
67352;SDS011;54238;52.278;21.056;2023-02-28T02:48:21;50.90;;;19.90;;
67352;SDS011;54238;52.278;21.056;2023-02-28T02:51:07;64.10;;;25.20;;
67352;SDS011;54238;52.278;21.056;2023-02-28T02:56:29;50.60;;;22.50;;
67352;SDS011;54238;52.278;21.056;2023-02-28T02:59:07;53.30;;;22.60;;
67352;SDS011;54238;52.278;21.056;2023-02-28T03:01:40;49.80;;;21.40;;
67352;SDS011;54238;52.278;21.056;2023-02-28T03:04:19;65.80;;;25.00;;
67352;SDS011;54238;52.278;21.056;2023-02-28T03:06:50;63.20;;;27.80;;
67352;SDS011;54238;52.278;21.056;2023-02-28T03:09:22;70.50;;;28.70;;
67352;SDS011;54238;52.278;21.056;2023-02-28T03:11:56;62.10;;;27.20;;
67352;SDS011;54238;52.278;21.056;2023-02-28T03:22:49;65.70;;;28.20;;
67352;SDS011;54238;52.278;21.056;2023-02-28T03:28:19;62.80;;;25.20;;
67352;SDS011;54238;52.278;21.056;2023-02-28T03:33:49;52.20;;;24.10;;
67352;SDS011;54238;52.278;21.056;2023-02-28T03:36:29;56.50;;;24.40;;
67352;SDS011;54238;52.278;21.056;2023-02-28T03:39:11;53.70;;;24.50;;
67352;SDS011;54238;52.278;21.056;2023-02-28T03:41:54;50.50;;;23.40;;
67352;SDS011;54238;52.278;21.056;2023-02-28T03:45:00;46.90;;;20.80;;
67352;SDS011;54238;52.278;21.056;2023-02-28T03:47:37;49.70;;;22.50;;
67352;SDS011;54238;52.278;21.056;2023-02-28T03:50:18;55.70;;;23.60;;
67352;SDS011;54238;52.278;21.056;2023-02-28T03:53:01;68.00;;;29.10;;
67352;SDS011;54238;52.278;21.056;2023-02-28T03:55:38;70.50;;;27.10;;
67352;SDS011;54238;52.278;21.056;2023-02-28T04:01:23;61.50;;;24.70;;
67352;SDS011;54238;52.278;21.056;2023-02-28T04:03:53;72.90;;;29.40;;
67352;SDS011;54238;52.278;21.056;2023-02-28T04:06:24;53.50;;;23.60;;
67352;SDS011;54238;52.278;21.056;2023-02-28T04:08:53;56.10;;;24.30;;
67352;SDS011;54238;52.278;21.056;2023-02-28T04:14:14;56.00;;;24.70;;
67352;SDS011;54238;52.278;21.056;2023-02-28T04:16:47;71.50;;;27.10;;
67352;SDS011;54238;52.278;21.056;2023-02-28T04:19:17;58.20;;;23.10;;
67352;SDS011;54238;52.278;21.056;2023-02-28T04:21:52;75.90;;;29.60;;
67352;SDS011;54238;52.278;21.056;2023-02-28T04:24:27;67.00;;;28.20;;
67352;SDS011;54238;52.278;21.056;2023-02-28T04:26:56;55.90;;;24.80;;
67352;SDS011;54238;52.278;21.056;2023-02-28T04:29:31;68.30;;;29.80;;
67352;SDS011;54238;52.278;21.056;2023-02-28T04:32:04;36.50;;;17.70;;
67352;SDS011;54238;52.278;21.056;2023-02-28T04:34:39;62.00;;;25.60;;
67352;SDS011;54238;52.278;21.056;2023-02-28T04:37:11;64.80;;;29.40;;
67352;SDS011;54238;52.278;21.056;2023-02-28T04:39:41;69.70;;;28.90;;
67352;SDS011;54238;52.278;21.056;2023-02-28T04:42:15;54.20;;;25.00;;
67352;SDS011;54238;52.278;21.056;2023-02-28T04:44:49;37.30;;;17.90;;
67352;SDS011;54238;52.278;21.056;2023-02-28T04:47:17;52.50;;;25.30;;
67352;SDS011;54238;52.278;21.056;2023-02-28T04:49:47;52.90;;;22.80;;
67352;SDS011;54238;52.278;21.056;2023-02-28T04:52:17;70.30;;;27.90;;
67352;SDS011;54238;52.278;21.056;2023-02-28T04:54:49;70.30;;;28.70;;
67352;SDS011;54238;52.278;21.056;2023-02-28T04:57:17;49.40;;;23.80;;
67352;SDS011;54238;52.278;21.056;2023-02-28T04:59:46;59.00;;;25.60;;
67352;SDS011;54238;52.278;21.056;2023-02-28T05:02:16;49.80;;;21.40;;
67352;SDS011;54238;52.278;21.056;2023-02-28T05:04:44;59.90;;;24.20;;
67352;SDS011;54238;52.278;21.056;2023-02-28T05:07:16;55.40;;;23.00;;
67352;SDS011;54238;52.278;21.056;2023-02-28T05:09:46;53.40;;;22.10;;
67352;SDS011;54238;52.278;21.056;2023-02-28T05:12:16;79.40;;;32.10;;
67352;SDS011;54238;52.278;21.056;2023-02-28T05:14:46;78.70;;;31.00;;
67352;SDS011;54238;52.278;21.056;2023-02-28T05:17:17;47.20;;;20.60;;
67352;SDS011;54238;52.278;21.056;2023-02-28T05:19:47;47.20;;;21.40;;
67352;SDS011;54238;52.278;21.056;2023-02-28T05:22:16;52.80;;;24.40;;
67352;SDS011;54238;52.278;21.056;2023-02-28T05:24:46;59.20;;;26.10;;
67352;SDS011;54238;52.278;21.056;2023-02-28T05:27:14;80.50;;;33.10;;
67352;SDS011;54238;52.278;21.056;2023-02-28T05:29:43;67.90;;;26.40;;
67352;SDS011;54238;52.278;21.056;2023-02-28T05:32:11;86.60;;;33.00;;
67352;SDS011;54238;52.278;21.056;2023-02-28T05:34:40;82.90;;;33.10;;
67352;SDS011;54238;52.278;21.056;2023-02-28T05:37:12;46.40;;;20.20;;
67352;SDS011;54238;52.278;21.056;2023-02-28T05:39:46;52.40;;;21.40;;
67352;SDS011;54238;52.278;21.056;2023-02-28T05:42:13;69.90;;;27.80;;
67352;SDS011;54238;52.278;21.056;2023-02-28T05:44:43;57.90;;;25.40;;
67352;SDS011;54238;52.278;21.056;2023-02-28T05:47:13;71.10;;;28.50;;
67352;SDS011;54238;52.278;21.056;2023-02-28T05:49:43;82.50;;;32.50;;
67352;SDS011;54238;52.278;21.056;2023-02-28T05:52:14;54.50;;;25.60;;
67352;SDS011;54238;52.278;21.056;2023-02-28T05:54:46;79.30;;;30.80;;
67352;SDS011;54238;52.278;21.056;2023-02-28T05:57:16;85.00;;;34.10;;
67352;SDS011;54238;52.278;21.056;2023-02-28T05:59:48;63.70;;;26.40;;
67352;SDS011;54238;52.278;21.056;2023-02-28T06:02:21;77.70;;;28.70;;
67352;SDS011;54238;52.278;21.056;2023-02-28T06:04:48;87.10;;;35.60;;
67352;SDS011;54238;52.278;21.056;2023-02-28T06:07:16;92.70;;;35.80;;
67352;SDS011;54238;52.278;21.056;2023-02-28T06:09:48;95.60;;;36.50;;
67352;SDS011;54238;52.278;21.056;2023-02-28T06:12:17;98.30;;;37.00;;
67352;SDS011;54238;52.278;21.056;2023-02-28T06:14:47;75.30;;;32.10;;
67352;SDS011;54238;52.278;21.056;2023-02-28T06:17:17;80.50;;;33.70;;
67352;SDS011;54238;52.278;21.056;2023-02-28T06:19:45;85.80;;;33.70;;
67352;SDS011;54238;52.278;21.056;2023-02-28T06:22:14;67.20;;;30.20;;
67352;SDS011;54238;52.278;21.056;2023-02-28T06:24:45;71.10;;;30.00;;
67352;SDS011;54238;52.278;21.056;2023-02-28T06:27:17;94.30;;;33.50;;
67352;SDS011;54238;52.278;21.056;2023-02-28T06:29:53;85.00;;;34.30;;
67352;SDS011;54238;52.278;21.056;2023-02-28T06:32:26;89.30;;;35.00;;
67352;SDS011;54238;52.278;21.056;2023-02-28T06:34:54;74.60;;;32.00;;
67352;SDS011;54238;52.278;21.056;2023-02-28T06:37:30;91.00;;;34.90;;
67352;SDS011;54238;52.278;21.056;2023-02-28T06:40:01;79.70;;;33.70;;
67352;SDS011;54238;52.278;21.056;2023-02-28T06:42:36;59.20;;;26.70;;
67352;SDS011;54238;52.278;21.056;2023-02-28T06:45:06;63.20;;;25.30;;
67352;SDS011;54238;52.278;21.056;2023-02-28T06:47:41;70.20;;;28.00;;
67352;SDS011;54238;52.278;21.056;2023-02-28T06:50:13;66.20;;;29.00;;
67352;SDS011;54238;52.278;21.056;2023-02-28T06:52:43;65.60;;;26.80;;
67352;SDS011;54238;52.278;21.056;2023-02-28T06:55:23;57.90;;;25.60;;
67352;SDS011;54238;52.278;21.056;2023-02-28T06:57:50;70.70;;;29.80;;
67352;SDS011;54238;52.278;21.056;2023-02-28T07:00:18;54.90;;;25.10;;
67352;SDS011;54238;52.278;21.056;2023-02-28T07:02:49;59.70;;;25.50;;
67352;SDS011;54238;52.278;21.056;2023-02-28T07:05:17;52.60;;;25.60;;
67352;SDS011;54238;52.278;21.056;2023-02-28T07:07:44;58.60;;;23.90;;
67352;SDS011;54238;52.278;21.056;2023-02-28T07:10:14;63.20;;;26.60;;
67352;SDS011;54238;52.278;21.056;2023-02-28T07:12:52;57.30;;;25.80;;
67352;SDS011;54238;52.278;21.056;2023-02-28T07:15:20;59.80;;;27.00;;
67352;SDS011;54238;52.278;21.056;2023-02-28T07:17:48;50.70;;;23.10;;
67352;SDS011;54238;52.278;21.056;2023-02-28T07:20:18;54.10;;;24.50;;
67352;SDS011;54238;52.278;21.056;2023-02-28T07:22:51;59.50;;;24.10;;
67352;SDS011;54238;52.278;21.056;2023-02-28T07:25:30;41.90;;;19.00;;
67352;SDS011;54238;52.278;21.056;2023-02-28T07:27:58;46.30;;;21.50;;
67352;SDS011;54238;52.278;21.056;2023-02-28T07:33:13;45.40;;;19.90;;
67352;SDS011;54238;52.278;21.056;2023-02-28T07:35:41;45.70;;;20.20;;
67352;SDS011;54238;52.278;21.056;2023-02-28T07:38:12;50.80;;;20.60;;
67352;SDS011;54238;52.278;21.056;2023-02-28T07:40:42;37.20;;;18.30;;
67352;SDS011;54238;52.278;21.056;2023-02-28T07:43:12;35.30;;;15.80;;
67352;SDS011;54238;52.278;21.056;2023-02-28T07:45:42;24.40;;;11.80;;
67352;SDS011;54238;52.278;21.056;2023-02-28T07:48:10;27.70;;;13.50;;
67352;SDS011;54238;52.278;21.056;2023-02-28T07:50:38;20.70;;;10.40;;
67352;SDS011;54238;52.278;21.056;2023-02-28T07:53:07;19.50;;;9.90;;
67352;SDS011;54238;52.278;21.056;2023-02-28T07:55:34;10.10;;;5.70;;
67352;SDS011;54238;52.278;21.056;2023-02-28T07:58:02;14.30;;;7.40;;
67352;SDS011;54238;52.278;21.056;2023-02-28T08:00:30;12.90;;;6.30;;
67352;SDS011;54238;52.278;21.056;2023-02-28T08:03:04;10.10;;;6.10;;
67352;SDS011;54238;52.278;21.056;2023-02-28T08:05:32;10.90;;;6.10;;
67352;SDS011;54238;52.278;21.056;2023-02-28T08:08:04;9.40;;;5.60;;
67352;SDS011;54238;52.278;21.056;2023-02-28T08:10:37;11.90;;;6.80;;
67352;SDS011;54238;52.278;21.056;2023-02-28T08:13:05;12.10;;;7.20;;
67352;SDS011;54238;52.278;21.056;2023-02-28T08:15:40;16.30;;;6.40;;
67352;SDS011;54238;52.278;21.056;2023-02-28T08:18:13;12.20;;;7.20;;
67352;SDS011;54238;52.278;21.056;2023-02-28T08:20:42;14.30;;;7.80;;
67352;SDS011;54238;52.278;21.056;2023-02-28T08:23:13;13.20;;;7.50;;
67352;SDS011;54238;52.278;21.056;2023-02-28T08:25:44;11.60;;;6.10;;
67352;SDS011;54238;52.278;21.056;2023-02-28T08:28:12;17.20;;;7.70;;
67352;SDS011;54238;52.278;21.056;2023-02-28T08:30:41;15.80;;;7.20;;
67352;SDS011;54238;52.278;21.056;2023-02-28T08:33:12;13.60;;;7.80;;
67352;SDS011;54238;52.278;21.056;2023-02-28T08:35:41;12.60;;;7.40;;
67352;SDS011;54238;52.278;21.056;2023-02-28T08:38:11;13.60;;;7.10;;
67352;SDS011;54238;52.278;21.056;2023-02-28T08:40:43;12.60;;;6.10;;
67352;SDS011;54238;52.278;21.056;2023-02-28T08:43:15;11.10;;;5.40;;
67352;SDS011;54238;52.278;21.056;2023-02-28T08:45:48;9.70;;;5.50;;
67352;SDS011;54238;52.278;21.056;2023-02-28T08:48:19;9.60;;;6.20;;
67352;SDS011;54238;52.278;21.056;2023-02-28T08:51:00;12.50;;;7.40;;
67352;SDS011;54238;52.278;21.056;2023-02-28T08:53:39;14.20;;;7.70;;
67352;SDS011;54238;52.278;21.056;2023-02-28T08:56:15;10.10;;;6.10;;
67352;SDS011;54238;52.278;21.056;2023-02-28T08:58:49;12.90;;;5.80;;
67352;SDS011;54238;52.278;21.056;2023-02-28T09:01:29;12.90;;;7.50;;
67352;SDS011;54238;52.278;21.056;2023-02-28T09:04:01;16.60;;;8.90;;
67352;SDS011;54238;52.278;21.056;2023-02-28T09:06:32;14.00;;;6.70;;
67352;SDS011;54238;52.278;21.056;2023-02-28T09:09:05;11.20;;;7.40;;
67352;SDS011;54238;52.278;21.056;2023-02-28T09:11:41;14.80;;;8.10;;
67352;SDS011;54238;52.278;21.056;2023-02-28T09:14:10;10.70;;;7.30;;
67352;SDS011;54238;52.278;21.056;2023-02-28T09:16:37;11.20;;;6.70;;
67352;SDS011;54238;52.278;21.056;2023-02-28T09:19:12;15.20;;;7.80;;
67352;SDS011;54238;52.278;21.056;2023-02-28T09:21:42;16.10;;;8.50;;
67352;SDS011;54238;52.278;21.056;2023-02-28T09:24:13;14.00;;;8.50;;
67352;SDS011;54238;52.278;21.056;2023-02-28T09:26:43;10.90;;;6.30;;
67352;SDS011;54238;52.278;21.056;2023-02-28T09:29:13;12.80;;;7.60;;
67352;SDS011;54238;52.278;21.056;2023-02-28T09:31:47;12.70;;;6.50;;
67352;SDS011;54238;52.278;21.056;2023-02-28T09:36:49;18.20;;;8.20;;
67352;SDS011;54238;52.278;21.056;2023-02-28T09:39:20;10.30;;;7.30;;
67352;SDS011;54238;52.278;21.056;2023-02-28T09:41:53;12.70;;;8.30;;
67352;SDS011;54238;52.278;21.056;2023-02-28T09:44:41;13.20;;;9.00;;
67352;SDS011;54238;52.278;21.056;2023-02-28T09:52:58;13.60;;;8.20;;
67352;SDS011;54238;52.278;21.056;2023-02-28T09:55:44;16.50;;;8.90;;
67352;SDS011;54238;52.278;21.056;2023-02-28T10:01:29;11.80;;;7.90;;
67352;SDS011;54238;52.278;21.056;2023-02-28T10:04:40;13.90;;;8.20;;
67352;SDS011;54238;52.278;21.056;2023-02-28T10:10:07;13.80;;;8.70;;
67352;SDS011;54238;52.278;21.056;2023-02-28T10:12:51;18.20;;;9.00;;
67352;SDS011;54238;52.278;21.056;2023-02-28T10:15:30;12.60;;;7.70;;
67352;SDS011;54238;52.278;21.056;2023-02-28T10:18:14;17.50;;;9.80;;
67352;SDS011;54238;52.278;21.056;2023-02-28T10:20:49;15.60;;;8.60;;
67352;SDS011;54238;52.278;21.056;2023-02-28T10:23:34;14.90;;;10.40;;
67352;SDS011;54238;52.278;21.056;2023-02-28T10:26:12;14.70;;;10.20;;
67352;SDS011;54238;52.278;21.056;2023-02-28T10:28:46;17.20;;;11.20;;
67352;SDS011;54238;52.278;21.056;2023-02-28T10:31:19;16.40;;;9.30;;
67352;SDS011;54238;52.278;21.056;2023-02-28T10:33:50;13.90;;;9.90;;
67352;SDS011;54238;52.278;21.056;2023-02-28T10:36:24;14.40;;;9.20;;
67352;SDS011;54238;52.278;21.056;2023-02-28T10:38:56;15.70;;;9.80;;
67352;SDS011;54238;52.278;21.056;2023-02-28T10:41:29;21.70;;;10.60;;
67352;SDS011;54238;52.278;21.056;2023-02-28T10:44:23;19.80;;;11.00;;
67352;SDS011;54238;52.278;21.056;2023-02-28T10:46:51;14.60;;;9.80;;
67352;SDS011;54238;52.278;21.056;2023-02-28T10:49:27;13.80;;;8.90;;
67352;SDS011;54238;52.278;21.056;2023-02-28T10:52:02;16.50;;;10.30;;
67352;SDS011;54238;52.278;21.056;2023-02-28T10:54:34;19.20;;;10.10;;
67352;SDS011;54238;52.278;21.056;2023-02-28T10:57:19;18.90;;;9.90;;
67352;SDS011;54238;52.278;21.056;2023-02-28T11:00:08;13.70;;;10.60;;
67352;SDS011;54238;52.278;21.056;2023-02-28T11:02:48;11.90;;;9.60;;
67352;SDS011;54238;52.278;21.056;2023-02-28T11:05:30;13.20;;;8.70;;
67352;SDS011;54238;52.278;21.056;2023-02-28T11:10:47;14.80;;;9.90;;
67352;SDS011;54238;52.278;21.056;2023-02-28T11:13:33;17.00;;;10.20;;
67352;SDS011;54238;52.278;21.056;2023-02-28T11:16:10;17.80;;;10.10;;
67352;SDS011;54238;52.278;21.056;2023-02-28T11:18:53;22.10;;;9.10;;
67352;SDS011;54238;52.278;21.056;2023-02-28T11:21:27;18.00;;;9.50;;
67352;SDS011;54238;52.278;21.056;2023-02-28T11:24:04;18.40;;;9.70;;
67352;SDS011;54238;52.278;21.056;2023-02-28T11:26:46;18.00;;;10.70;;
67352;SDS011;54238;52.278;21.056;2023-02-28T11:29:27;15.90;;;9.80;;
67352;SDS011;54238;52.278;21.056;2023-02-28T11:34:42;11.20;;;8.20;;
67352;SDS011;54238;52.278;21.056;2023-02-28T11:37:18;12.90;;;9.30;;
67352;SDS011;54238;52.278;21.056;2023-02-28T11:39:54;15.10;;;10.10;;
67352;SDS011;54238;52.278;21.056;2023-02-28T11:56:54;10.70;;;8.50;;
67352;SDS011;54238;52.278;21.056;2023-02-28T12:05:35;14.00;;;8.00;;
67352;SDS011;54238;52.278;21.056;2023-02-28T12:20:09;11.60;;;8.80;;
67352;SDS011;54238;52.278;21.056;2023-02-28T12:28:35;13.40;;;8.90;;
67352;SDS011;54238;52.278;21.056;2023-02-28T12:31:18;16.40;;;9.20;;
67352;SDS011;54238;52.278;21.056;2023-02-28T12:34:01;13.00;;;10.10;;
67352;SDS011;54238;52.278;21.056;2023-02-28T12:36:34;13.70;;;9.90;;
67352;SDS011;54238;52.278;21.056;2023-02-28T12:39:12;13.20;;;9.40;;
67352;SDS011;54238;52.278;21.056;2023-02-28T12:42:03;17.70;;;9.80;;
67352;SDS011;54238;52.278;21.056;2023-02-28T12:44:44;14.30;;;9.60;;
67352;SDS011;54238;52.278;21.056;2023-02-28T12:47:18;15.90;;;9.50;;
67352;SDS011;54238;52.278;21.056;2023-02-28T12:50:07;19.70;;;10.50;;
67352;SDS011;54238;52.278;21.056;2023-02-28T12:52:59;16.60;;;9.90;;
67352;SDS011;54238;52.278;21.056;2023-02-28T13:17:35;19.00;;;9.60;;
67352;SDS011;54238;52.278;21.056;2023-02-28T13:20:02;12.80;;;9.60;;
67352;SDS011;54238;52.278;21.056;2023-02-28T13:25:02;19.90;;;9.90;;
67352;SDS011;54238;52.278;21.056;2023-02-28T13:27:36;18.40;;;10.10;;
67352;SDS011;54238;52.278;21.056;2023-02-28T13:33:33;14.40;;;8.40;;
67352;SDS011;54238;52.278;21.056;2023-02-28T13:47:41;14.00;;;8.70;;
67352;SDS011;54238;52.278;21.056;2023-02-28T13:50:24;13.40;;;9.40;;
67352;SDS011;54238;52.278;21.056;2023-02-28T13:59:12;14.90;;;9.10;;
67352;SDS011;54238;52.278;21.056;2023-02-28T14:02:36;13.20;;;8.80;;
67352;SDS011;54238;52.278;21.056;2023-02-28T14:05:12;10.90;;;8.70;;
67352;SDS011;54238;52.278;21.056;2023-02-28T14:07:53;15.90;;;10.50;;
67352;SDS011;54238;52.278;21.056;2023-02-28T14:10:29;15.40;;;9.90;;
67352;SDS011;54238;52.278;21.056;2023-02-28T14:15:57;13.00;;;8.80;;
67352;SDS011;54238;52.278;21.056;2023-02-28T14:18:37;13.70;;;10.00;;
67352;SDS011;54238;52.278;21.056;2023-02-28T14:21:27;12.10;;;8.70;;
67352;SDS011;54238;52.278;21.056;2023-02-28T14:30:03;12.60;;;9.20;;
67352;SDS011;54238;52.278;21.056;2023-02-28T14:36:12;14.00;;;9.30;;
67352;SDS011;54238;52.278;21.056;2023-02-28T14:38:51;16.70;;;10.00;;
67352;SDS011;54238;52.278;21.056;2023-02-28T14:41:34;13.60;;;9.80;;
67352;SDS011;54238;52.278;21.056;2023-02-28T14:44:15;16.10;;;9.70;;
67352;SDS011;54238;52.278;21.056;2023-02-28T14:47:13;13.90;;;10.30;;
67352;SDS011;54238;52.278;21.056;2023-02-28T14:49:49;12.90;;;8.40;;
67352;SDS011;54238;52.278;21.056;2023-02-28T14:52:31;14.30;;;9.10;;
67352;SDS011;54238;52.278;21.056;2023-02-28T14:55:10;13.30;;;8.90;;
67352;SDS011;54238;52.278;21.056;2023-02-28T14:57:52;12.80;;;8.50;;
67352;SDS011;54238;52.278;21.056;2023-02-28T15:00:46;10.60;;;8.10;;
67352;SDS011;54238;52.278;21.056;2023-02-28T15:03:23;12.70;;;8.50;;
67352;SDS011;54238;52.278;21.056;2023-02-28T15:06:03;16.90;;;9.20;;
67352;SDS011;54238;52.278;21.056;2023-02-28T15:09:10;14.10;;;9.00;;
67352;SDS011;54238;52.278;21.056;2023-02-28T15:11:47;13.90;;;9.80;;
67352;SDS011;54238;52.278;21.056;2023-02-28T15:14:19;14.90;;;9.40;;
67352;SDS011;54238;52.278;21.056;2023-02-28T15:16:55;17.20;;;8.90;;
67352;SDS011;54238;52.278;21.056;2023-02-28T15:19:39;13.30;;;9.10;;
67352;SDS011;54238;52.278;21.056;2023-02-28T15:22:19;23.00;;;11.70;;
67352;SDS011;54238;52.278;21.056;2023-02-28T15:24:56;14.40;;;9.90;;
67352;SDS011;54238;52.278;21.056;2023-02-28T15:27:28;11.40;;;8.40;;
67352;SDS011;54238;52.278;21.056;2023-02-28T15:35:49;12.30;;;8.50;;
67352;SDS011;54238;52.278;21.056;2023-02-28T15:38:25;15.60;;;8.70;;
67352;SDS011;54238;52.278;21.056;2023-02-28T15:41:03;15.40;;;9.40;;
67352;SDS011;54238;52.278;21.056;2023-02-28T15:43:40;19.90;;;9.90;;
67352;SDS011;54238;52.278;21.056;2023-02-28T15:46:14;22.90;;;8.90;;
67352;SDS011;54238;52.278;21.056;2023-02-28T15:48:56;15.90;;;9.90;;
67352;SDS011;54238;52.278;21.056;2023-02-28T15:51:31;20.40;;;10.40;;
67352;SDS011;54238;52.278;21.056;2023-02-28T15:54:06;20.90;;;11.40;;
67352;SDS011;54238;52.278;21.056;2023-02-28T15:56:43;19.70;;;10.80;;
67352;SDS011;54238;52.278;21.056;2023-02-28T15:59:21;18.50;;;11.70;;
67352;SDS011;54238;52.278;21.056;2023-02-28T16:02:34;16.60;;;10.60;;
67352;SDS011;54238;52.278;21.056;2023-02-28T16:07:42;19.70;;;11.20;;
67352;SDS011;54238;52.278;21.056;2023-02-28T16:10:23;21.10;;;12.20;;
67352;SDS011;54238;52.278;21.056;2023-02-28T16:12:57;16.90;;;11.60;;
67352;SDS011;54238;52.278;21.056;2023-02-28T16:15:28;29.10;;;12.90;;
67352;SDS011;54238;52.278;21.056;2023-02-28T16:17:58;23.60;;;12.60;;
67352;SDS011;54238;52.278;21.056;2023-02-28T16:20:32;25.10;;;14.50;;
67352;SDS011;54238;52.278;21.056;2023-02-28T16:23:04;25.30;;;13.80;;
67352;SDS011;54238;52.278;21.056;2023-02-28T16:25:40;20.80;;;12.10;;
67352;SDS011;54238;52.278;21.056;2023-02-28T16:28:24;24.70;;;13.10;;
67352;SDS011;54238;52.278;21.056;2023-02-28T16:31:02;26.00;;;13.30;;
67352;SDS011;54238;52.278;21.056;2023-02-28T16:33:36;26.20;;;14.60;;
67352;SDS011;54238;52.278;21.056;2023-02-28T16:36:24;20.90;;;12.70;;
67352;SDS011;54238;52.278;21.056;2023-02-28T16:38:58;25.00;;;12.70;;
67352;SDS011;54238;52.278;21.056;2023-02-28T16:41:27;25.70;;;11.40;;
67352;SDS011;54238;52.278;21.056;2023-02-28T16:43:58;25.90;;;13.90;;
67352;SDS011;54238;52.278;21.056;2023-02-28T16:46:42;35.60;;;15.80;;
67352;SDS011;54238;52.278;21.056;2023-02-28T16:49:13;26.80;;;14.50;;
67352;SDS011;54238;52.278;21.056;2023-02-28T16:51:43;31.00;;;15.70;;
67352;SDS011;54238;52.278;21.056;2023-02-28T16:54:11;27.30;;;14.20;;
67352;SDS011;54238;52.278;21.056;2023-02-28T16:56:45;26.90;;;14.60;;
67352;SDS011;54238;52.278;21.056;2023-02-28T16:59:21;28.50;;;14.70;;
67352;SDS011;54238;52.278;21.056;2023-02-28T17:01:56;27.80;;;15.70;;
67352;SDS011;54238;52.278;21.056;2023-02-28T17:04:29;24.90;;;14.40;;
67352;SDS011;54238;52.278;21.056;2023-02-28T17:07:01;24.20;;;13.50;;
67352;SDS011;54238;52.278;21.056;2023-02-28T17:09:29;26.60;;;13.00;;
67352;SDS011;54238;52.278;21.056;2023-02-28T17:12:05;21.40;;;12.30;;
67352;SDS011;54238;52.278;21.056;2023-02-28T17:14:37;24.80;;;12.60;;
67352;SDS011;54238;52.278;21.056;2023-02-28T17:17:09;24.20;;;12.10;;
67352;SDS011;54238;52.278;21.056;2023-02-28T17:19:45;30.40;;;13.70;;
67352;SDS011;54238;52.278;21.056;2023-02-28T17:22:14;24.30;;;13.00;;
67352;SDS011;54238;52.278;21.056;2023-02-28T17:24:44;23.30;;;11.20;;
67352;SDS011;54238;52.278;21.056;2023-02-28T17:27:12;23.80;;;12.40;;
67352;SDS011;54238;52.278;21.056;2023-02-28T17:29:44;29.40;;;12.20;;
67352;SDS011;54238;52.278;21.056;2023-02-28T17:32:16;25.60;;;13.40;;
67352;SDS011;54238;52.278;21.056;2023-02-28T17:34:50;22.80;;;12.10;;
67352;SDS011;54238;52.278;21.056;2023-02-28T17:37:22;33.00;;;14.20;;
67352;SDS011;54238;52.278;21.056;2023-02-28T17:39:52;33.30;;;15.80;;
67352;SDS011;54238;52.278;21.056;2023-02-28T17:42:24;36.40;;;15.70;;
67352;SDS011;54238;52.278;21.056;2023-02-28T17:44:54;36.60;;;15.50;;
67352;SDS011;54238;52.278;21.056;2023-02-28T17:47:31;62.40;;;18.00;;
67352;SDS011;54238;52.278;21.056;2023-02-28T17:50:00;51.40;;;18.70;;